createdAt,value
2023-03-27T00:02:05.310Z,6.40
2023-03-27T00:04:31.900Z,7.13
2023-03-27T00:07:00.445Z,12.37
2023-03-27T00:09:28.436Z,6.20
2023-03-27T00:11:56.143Z,10.67
2023-03-27T00:14:23.888Z,8.90
2023-03-27T00:16:50.999Z,6.87
2023-03-27T00:19:18.841Z,6.20
2023-03-27T00:21:45.618Z,9.30
2023-03-27T00:24:12.288Z,8.97
2023-03-27T00:26:40.521Z,9.80
2023-03-27T00:29:07.864Z,12.80
2023-03-27T00:31:35.057Z,12.77
2023-03-27T00:34:01.810Z,12.63
2023-03-27T00:36:28.302Z,10.33
2023-03-27T00:38:56.626Z,13.87
2023-03-27T00:41:24.089Z,10.10
2023-03-27T00:43:54.154Z,13.33
2023-03-27T00:46:41.500Z,14.43
2023-03-27T00:49:11.827Z,10.73
2023-03-27T00:51:41.922Z,13.63
2023-03-27T00:54:09.803Z,10.63
2023-03-27T00:56:38.932Z,11.50
2023-03-27T00:59:15.475Z,11.93
2023-03-27T01:01:44.196Z,12.47
2023-03-27T01:04:11.353Z,8.00
2023-03-27T01:06:41.895Z,12.00
2023-03-27T01:09:09.339Z,9.70
2023-03-27T01:11:40.690Z,8.70
2023-03-27T01:14:15.513Z,13.43
2023-03-27T01:17:19.849Z,9.50
2023-03-27T01:20:03.852Z,6.30
2023-03-27T01:22:58.322Z,8.47
2023-03-27T01:25:47.650Z,10.90
2023-03-27T01:28:38.667Z,8.17
2023-03-27T01:31:25.213Z,12.23
2023-03-27T01:34:03.126Z,9.27
2023-03-27T01:36:40.512Z,10.53
2023-03-27T01:39:30.483Z,14.23
2023-03-27T01:42:18.940Z,12.87
2023-03-27T01:45:06.834Z,8.47
2023-03-27T01:47:41.257Z,11.90
2023-03-27T01:50:19.361Z,18.00
2023-03-27T01:52:53.654Z,12.00
2023-03-27T01:55:24.705Z,11.93
2023-03-27T01:58:14.247Z,10.53
2023-03-27T02:00:52.055Z,6.77
2023-03-27T02:03:27.662Z,6.37
2023-03-27T02:05:58.286Z,6.87
2023-03-27T02:08:44.958Z,10.97
2023-03-27T02:11:15.458Z,9.67
2023-03-27T02:13:57.463Z,7.70
2023-03-27T02:16:33.572Z,10.50
2023-03-27T02:19:13.003Z,9.13
2023-03-27T02:21:39.434Z,8.40
2023-03-27T02:24:06.664Z,8.27
2023-03-27T02:26:36.152Z,7.73
2023-03-27T02:29:14.416Z,10.73
2023-03-27T02:32:03.743Z,11.87
2023-03-27T02:34:56.974Z,13.37
2023-03-27T02:37:57.299Z,8.20
2023-03-27T02:41:18.862Z,10.87
2023-03-27T02:44:09.867Z,8.67
2023-03-27T02:47:07.689Z,6.50
2023-03-27T02:49:44.113Z,4.70
2023-03-27T02:52:17.160Z,5.57
2023-03-27T02:54:51.067Z,5.43
2023-03-27T02:57:24.973Z,3.87
2023-03-27T03:00:28.352Z,7.93
2023-03-27T03:03:13.984Z,7.03
2023-03-27T03:05:41.258Z,6.87
2023-03-27T03:08:10.132Z,4.33
2023-03-27T03:10:42.996Z,5.93
2023-03-27T03:13:09.568Z,6.80
2023-03-27T03:15:37.442Z,10.93
2023-03-27T03:18:04.002Z,7.93
2023-03-27T03:20:30.992Z,5.63
2023-03-27T03:22:59.587Z,8.50
2023-03-27T03:25:26.283Z,4.10
2023-03-27T03:27:58.186Z,6.83
2023-03-27T03:30:30.101Z,4.93
2023-03-27T03:33:02.806Z,8.10
2023-03-27T03:35:29.724Z,5.97
2023-03-27T03:37:58.819Z,7.20
2023-03-27T03:40:26.732Z,7.93
2023-03-27T03:42:56.740Z,12.03
2023-03-27T03:45:27.167Z,6.70
2023-03-27T03:47:54.305Z,3.67
2023-03-27T03:50:22.760Z,8.13
2023-03-27T03:52:49.512Z,13.73
2023-03-27T03:55:16.161Z,6.70
2023-03-27T03:57:50.154Z,4.03
2023-03-27T04:00:23.257Z,6.80
2023-03-27T04:02:56.745Z,6.40
2023-03-27T04:05:23.909Z,9.83
2023-03-27T04:07:56.495Z,6.93
2023-03-27T04:10:39.405Z,6.20
2023-03-27T04:13:13.396Z,13.47
2023-03-27T04:15:51.335Z,6.70
2023-03-27T04:18:32.935Z,9.57
2023-03-27T04:21:03.023Z,6.13
2023-03-27T04:23:33.397Z,6.43
2023-03-27T04:26:03.113Z,5.90
2023-03-27T04:28:51.639Z,8.13
2023-03-27T04:31:39.815Z,9.13
2023-03-27T04:34:26.260Z,10.67
2023-03-27T04:37:07.766Z,6.97
2023-03-27T04:39:41.540Z,9.03
2023-03-27T04:42:10.348Z,5.97
2023-03-27T04:44:38.204Z,5.13
2023-03-27T04:47:08.582Z,6.43
2023-03-27T04:49:40.684Z,8.00
2023-03-27T04:52:17.951Z,6.60
2023-03-27T04:54:44.928Z,3.77
2023-03-27T04:57:11.872Z,7.40
2023-03-27T04:59:38.487Z,6.07
2023-03-27T05:02:24.386Z,8.40
2023-03-27T05:04:58.840Z,7.50
2023-03-27T05:07:31.277Z,4.43
2023-03-27T05:09:58.094Z,9.70
2023-03-27T05:12:28.284Z,7.47
2023-03-27T05:14:59.476Z,6.57
2023-03-27T05:17:52.840Z,7.30
2023-03-27T05:20:22.069Z,7.77
2023-03-27T05:22:52.121Z,6.50
2023-03-27T05:25:39.360Z,11.23
2023-03-27T05:28:10.878Z,6.47
2023-03-27T05:30:37.713Z,11.40
2023-03-27T05:33:17.509Z,9.67
2023-03-27T05:35:48.086Z,7.30
2023-03-27T05:38:15.930Z,8.10
2023-03-27T05:41:02.636Z,10.43
2023-03-27T05:43:31.189Z,4.63
2023-03-27T05:45:57.990Z,5.57
2023-03-27T05:48:25.233Z,6.17
2023-03-27T05:50:51.964Z,5.43
2023-03-27T05:53:28.029Z,6.83
2023-03-27T05:56:14.400Z,11.03
2023-03-27T05:58:52.478Z,7.77
2023-03-27T06:01:21.039Z,8.47
2023-03-27T06:03:49.284Z,8.90
2023-03-27T06:06:22.310Z,5.00
2023-03-27T06:08:55.972Z,7.37
2023-03-27T06:11:23.113Z,8.93
2023-03-27T06:13:51.008Z,9.70
2023-03-27T06:16:22.173Z,8.97
2023-03-27T06:19:05.408Z,8.77
2023-03-27T06:21:32.521Z,7.67
2023-03-27T06:24:01.245Z,10.47
2023-03-27T06:26:28.277Z,6.37
2023-03-27T06:28:56.338Z,5.57
2023-03-27T06:31:23.269Z,8.13
2023-03-27T06:34:01.920Z,10.53
2023-03-27T06:36:41.590Z,4.07
2023-03-27T06:39:10.962Z,6.90
2023-03-27T06:41:37.574Z,7.30
2023-03-27T06:44:04.228Z,8.00
2023-03-27T06:46:45.387Z,4.53
2023-03-27T06:49:16.452Z,7.00
2023-03-27T06:51:42.979Z,6.73
2023-03-27T06:54:12.315Z,7.73
2023-03-27T06:56:44.348Z,6.53
2023-03-27T06:59:15.192Z,7.60
2023-03-27T07:01:43.788Z,7.33
2023-03-27T07:04:22.545Z,5.67
2023-03-27T07:07:01.141Z,7.53
2023-03-27T07:09:32.933Z,10.07
2023-03-27T07:12:04.115Z,7.17
2023-03-27T07:14:30.594Z,6.63
2023-03-27T07:16:57.090Z,2.73
2023-03-27T07:19:27.249Z,4.93
2023-03-27T07:22:03.222Z,5.63
2023-03-27T07:24:32.003Z,7.83
2023-03-27T07:26:58.611Z,5.60
2023-03-27T07:29:31.767Z,4.53
2023-03-27T07:32:02.837Z,5.20
2023-03-27T07:34:39.033Z,7.87
2023-03-27T07:37:05.705Z,5.10
2023-03-27T07:39:33.610Z,8.77
2023-03-27T07:42:00.483Z,6.77
2023-03-27T07:44:43.212Z,4.87
2023-03-27T07:47:09.704Z,7.03
2023-03-27T07:49:40.083Z,6.33
2023-03-27T07:52:11.144Z,5.07
2023-03-27T07:54:48.646Z,8.17
2023-03-27T07:57:17.122Z,5.53
2023-03-27T07:59:52.619Z,7.10
2023-03-27T08:02:27.730Z,6.37
2023-03-27T08:04:55.156Z,4.83
2023-03-27T08:07:22.732Z,5.20
2023-03-27T08:09:49.320Z,6.30
2023-03-27T08:12:15.819Z,5.70
2023-03-27T08:14:49.891Z,7.20
2023-03-27T08:17:22.220Z,7.97
2023-03-27T08:19:49.027Z,4.67
2023-03-27T08:22:16.909Z,7.77
2023-03-27T08:25:15.364Z,5.63
2023-03-27T08:27:44.557Z,6.13
2023-03-27T08:30:16.556Z,5.47
2023-03-27T08:32:43.898Z,7.20
2023-03-27T08:35:11.126Z,5.97
2023-03-27T08:37:37.998Z,7.53
2023-03-27T08:40:38.286Z,6.20
2023-03-27T08:43:41.110Z,7.10
2023-03-27T08:46:13.772Z,10.07
2023-03-27T08:48:48.518Z,8.90
2023-03-27T08:51:26.128Z,7.83
2023-03-27T08:54:02.703Z,9.73
2023-03-27T08:56:31.259Z,7.37
2023-03-27T08:58:58.048Z,5.43
2023-03-27T09:01:35.446Z,7.27
2023-03-27T09:04:25.963Z,9.97
2023-03-27T09:07:02.706Z,7.77
2023-03-27T09:10:11.203Z,5.60
2023-03-27T09:12:59.325Z,7.83
2023-03-27T09:15:52.629Z,4.53
2023-03-27T09:18:27.452Z,4.17
2023-03-27T09:21:05.708Z,3.83
2023-03-27T09:23:42.054Z,5.53
2023-03-27T09:26:43.477Z,7.70
2023-03-27T09:29:34.622Z,3.90
2023-03-27T09:32:15.486Z,5.40
2023-03-27T09:34:43.376Z,4.97
2023-03-27T09:37:12.427Z,4.77
2023-03-27T09:39:45.404Z,6.10
2023-03-27T09:42:33.589Z,8.33
2023-03-27T09:45:06.308Z,6.30
2023-03-27T09:48:05.426Z,7.40
2023-03-27T09:50:47.410Z,3.93
2023-03-27T09:53:39.684Z,4.20
2023-03-27T09:56:16.277Z,4.73
2023-03-27T09:58:51.224Z,4.60
2023-03-27T10:01:28.151Z,3.20
2023-03-27T10:04:01.095Z,3.77
2023-03-27T10:06:43.164Z,4.23
2023-03-27T10:09:29.845Z,3.70
2023-03-27T10:12:18.036Z,4.20
2023-03-27T10:14:52.256Z,3.80
2023-03-27T10:17:28.436Z,3.33
2023-03-27T10:20:14.111Z,4.30
2023-03-27T10:22:54.904Z,5.77
2023-03-27T10:25:34.282Z,4.80
2023-03-27T10:28:14.949Z,4.20
2023-03-27T10:31:04.845Z,6.63
2023-03-27T10:33:45.433Z,7.23
2023-03-27T10:36:27.608Z,3.80
2023-03-27T10:38:58.357Z,6.57
2023-03-27T10:41:37.901Z,4.07
2023-03-27T10:44:16.438Z,5.43
2023-03-27T10:46:49.039Z,4.27
2023-03-27T10:49:21.436Z,4.67
2023-03-27T10:52:29.034Z,3.50
2023-03-27T10:55:32.797Z,3.20
2023-03-27T10:58:05.397Z,7.13
2023-03-27T11:00:41.085Z,3.87
2023-03-27T11:03:17.893Z,4.00
2023-03-27T11:05:48.704Z,4.17
2023-03-27T11:08:52.862Z,4.70
2023-03-27T11:11:45.473Z,3.57
2023-03-27T11:14:31.233Z,6.03
2023-03-27T11:17:04.110Z,6.07
2023-03-27T11:20:07.276Z,3.53
2023-03-27T11:23:19.979Z,6.37
2023-03-27T11:26:07.460Z,3.13
2023-03-27T11:28:48.818Z,3.73
2023-03-27T11:31:40.921Z,2.70
2023-03-27T11:34:28.613Z,3.50
2023-03-27T11:37:09.672Z,1.50
2023-03-27T11:39:55.576Z,2.57
2023-03-27T11:42:34.396Z,3.93
2023-03-27T11:45:04.517Z,1.90
2023-03-27T11:47:56.194Z,4.00
2023-03-27T11:50:28.989Z,3.00
2023-03-27T11:53:09.259Z,1.77
2023-03-27T11:56:02.453Z,3.57
2023-03-27T11:58:47.181Z,1.47
2023-03-27T12:01:27.150Z,3.33
2023-03-27T12:04:06.664Z,2.27
2023-03-27T12:07:11.760Z,4.57
2023-03-27T12:10:11.889Z,2.03
2023-03-27T12:13:16.619Z,2.03
2023-03-27T12:16:08.888Z,1.20
2023-03-27T12:19:27.421Z,1.37
2023-03-27T12:22:30.071Z,2.10
2023-03-27T12:25:17.026Z,1.57
2023-03-27T12:28:29.502Z,1.20
2023-03-27T12:31:13.404Z,1.77
2023-03-27T12:33:57.010Z,0.90
2023-03-27T12:36:26.157Z,1.13
2023-03-27T12:38:55.703Z,1.13
2023-03-27T12:41:28.447Z,1.77
2023-03-27T12:44:13.866Z,0.67
2023-03-27T12:47:21.514Z,1.73
2023-03-27T12:50:00.720Z,1.77
2023-03-27T12:52:33.754Z,2.33
2023-03-27T12:55:18.300Z,1.33
2023-03-27T12:57:57.917Z,0.57
2023-03-27T13:00:53.743Z,0.50
2023-03-27T13:03:37.166Z,0.50
2023-03-27T13:06:45.521Z,1.07
2023-03-27T13:09:25.344Z,2.03
2023-03-27T13:12:28.228Z,0.37
2023-03-27T13:15:13.032Z,1.23
2023-03-27T13:18:15.866Z,1.53
2023-03-27T13:21:10.591Z,0.70
2023-03-27T13:24:09.340Z,1.37
2023-03-27T13:27:06.748Z,2.00
2023-03-27T13:29:37.215Z,0.83
2023-03-27T13:32:38.782Z,1.07
2023-03-27T13:35:22.107Z,0.90
2023-03-27T13:37:48.662Z,1.40
2023-03-27T13:40:20.362Z,1.37
2023-03-27T13:42:52.516Z,0.60
2023-03-27T13:45:39.803Z,0.90
2023-03-27T13:49:02.416Z,1.93
2023-03-27T13:52:02.201Z,1.00
2023-03-27T13:55:03.348Z,2.23
2023-03-27T13:58:03.011Z,0.80
2023-03-27T14:00:52.902Z,1.73
2023-03-27T14:03:41.903Z,1.97
2023-03-27T14:06:36.014Z,0.97
2023-03-27T14:09:25.450Z,1.53
2023-03-27T14:12:06.103Z,2.43
2023-03-27T14:15:16.778Z,1.10
2023-03-27T14:18:18.026Z,1.93
2023-03-27T14:20:58.227Z,0.40
2023-03-27T14:24:00.365Z,1.93
2023-03-27T14:26:41.766Z,1.80
2023-03-27T14:29:12.190Z,1.27
2023-03-27T14:31:44.305Z,2.07
2023-03-27T14:34:24.648Z,2.10
2023-03-27T14:37:28.894Z,1.20
2023-03-27T14:40:00.746Z,1.27
2023-03-27T14:42:46.858Z,1.57
2023-03-27T14:45:23.569Z,2.17
2023-03-27T14:48:03.167Z,1.67
2023-03-27T14:50:40.838Z,3.13
2023-03-27T14:53:13.513Z,5.80
2023-03-27T14:56:05.086Z,1.50
2023-03-27T14:59:03.059Z,3.30
2023-03-27T15:01:43.140Z,3.23
2023-03-27T15:04:14.050Z,1.63
2023-03-27T15:06:42.584Z,2.33
2023-03-27T15:09:15.571Z,2.27
2023-03-27T15:12:11.642Z,2.67
2023-03-27T15:14:40.133Z,3.43
2023-03-27T15:17:14.790Z,2.20
2023-03-27T15:19:45.543Z,1.67
2023-03-27T15:22:23.204Z,2.23
2023-03-27T15:25:08.607Z,2.07
2023-03-27T15:27:41.660Z,2.03
2023-03-27T15:30:31.914Z,1.30
2023-03-27T15:33:02.153Z,0.90
2023-03-27T15:35:35.129Z,3.70
2023-03-27T15:38:03.892Z,1.77
2023-03-27T15:40:37.506Z,1.83
2023-03-27T15:43:20.757Z,1.73
2023-03-27T15:45:53.792Z,2.17
2023-03-27T15:48:23.220Z,2.20
2023-03-27T15:50:59.905Z,2.07
2023-03-27T15:53:31.153Z,3.57
2023-03-27T15:55:58.494Z,3.93
2023-03-27T15:58:27.307Z,2.00
2023-03-27T16:01:02.183Z,1.77
2023-03-27T16:03:32.853Z,3.33
2023-03-27T16:06:01.011Z,4.50
2023-03-27T16:08:32.489Z,2.03
2023-03-27T16:11:00.405Z,2.93
2023-03-27T16:13:42.282Z,1.30
2023-03-27T16:16:22.476Z,1.63
2023-03-27T16:18:51.167Z,2.13
2023-03-27T16:21:21.170Z,1.33
2023-03-27T16:23:47.559Z,1.93
2023-03-27T16:26:17.280Z,1.03
2023-03-27T16:28:44.028Z,1.27
2023-03-27T16:31:16.479Z,1.80
2023-03-27T16:33:45.181Z,0.60
2023-03-27T16:36:18.509Z,2.63
2023-03-27T16:38:45.176Z,1.90
2023-03-27T16:41:13.857Z,2.40
2023-03-27T16:43:40.812Z,1.67
2023-03-27T16:46:16.881Z,1.63
2023-03-27T16:48:43.347Z,2.87
2023-03-27T16:51:09.820Z,2.40
2023-03-27T16:53:36.261Z,2.67
2023-03-27T16:56:02.688Z,2.47
2023-03-27T16:58:29.141Z,0.90
2023-03-27T17:00:55.711Z,1.43
2023-03-27T17:03:22.186Z,3.27
2023-03-27T17:05:49.034Z,3.60
2023-03-27T17:08:16.849Z,2.47
2023-03-27T17:10:44.186Z,2.43
2023-03-27T17:13:10.844Z,2.00
2023-03-27T17:15:38.248Z,1.50
2023-03-27T17:18:05.909Z,1.70
2023-03-27T17:20:35.348Z,1.63
2023-03-27T17:23:01.814Z,1.23
2023-03-27T17:25:28.317Z,2.33
2023-03-27T17:27:54.746Z,1.60
2023-03-27T17:30:34.574Z,1.50
2023-03-27T17:33:05.200Z,1.67
2023-03-27T17:35:31.880Z,2.17
2023-03-27T17:37:58.287Z,0.93
2023-03-27T17:40:24.704Z,1.17
2023-03-27T17:42:51.182Z,0.97
2023-03-27T17:45:19.097Z,1.83
2023-03-27T17:47:45.762Z,2.13
2023-03-27T17:50:12.265Z,1.20
2023-03-27T17:52:38.652Z,2.10
2023-03-27T17:55:05.457Z,3.43
2023-03-27T17:57:33.014Z,2.53
2023-03-27T17:59:59.533Z,2.00
2023-03-27T18:02:26.077Z,1.93
2023-03-27T18:04:52.661Z,2.47
2023-03-27T18:07:20.500Z,2.07
2023-03-27T18:09:47.285Z,0.70
2023-03-27T18:12:14.361Z,2.63
2023-03-27T18:14:42.350Z,0.97
2023-03-27T18:17:08.805Z,1.07
2023-03-27T18:19:35.389Z,1.77
2023-03-27T18:22:02.255Z,0.90
2023-03-27T18:24:29.040Z,2.57
2023-03-27T18:26:55.565Z,2.43
2023-03-27T18:29:24.070Z,0.77
2023-03-27T18:31:50.726Z,1.63
2023-03-27T18:34:17.310Z,1.60
2023-03-27T18:36:50.597Z,2.23
2023-03-27T18:39:20.578Z,1.50
2023-03-27T18:41:47.002Z,1.53
2023-03-27T18:44:13.815Z,1.27
2023-03-27T18:46:40.396Z,1.00
2023-03-27T18:49:17.446Z,3.20
2023-03-27T18:51:51.183Z,2.27
2023-03-27T18:54:17.591Z,0.97
2023-03-27T18:56:44.039Z,1.33
2023-03-27T18:59:11.073Z,3.83
2023-03-27T19:01:37.662Z,1.07
2023-03-27T19:04:04.772Z,0.73
2023-03-27T19:06:36.169Z,3.50
2023-03-27T19:09:02.720Z,2.07
2023-03-27T19:11:29.117Z,0.43
2023-03-27T19:14:14.082Z,1.37
2023-03-27T19:16:53.257Z,0.83
2023-03-27T19:19:41.353Z,4.53
2023-03-27T19:22:33.541Z,2.90
2023-03-27T19:25:05.624Z,2.60
2023-03-27T19:27:38.218Z,1.83
2023-03-27T19:30:07.997Z,1.30
2023-03-27T19:32:34.613Z,0.93
2023-03-27T19:35:01.791Z,1.87
2023-03-27T19:37:29.699Z,2.10
2023-03-27T19:39:56.375Z,1.87
2023-03-27T19:42:22.892Z,1.70
2023-03-27T19:44:49.321Z,2.03
2023-03-27T19:47:15.829Z,2.03
2023-03-27T19:49:42.620Z,1.57
2023-03-27T19:52:26.204Z,1.93
2023-03-27T19:54:53.803Z,2.97
2023-03-27T19:57:22.543Z,1.07
2023-03-27T19:59:50.300Z,0.87
2023-03-27T20:02:16.838Z,2.47
2023-03-27T20:04:43.541Z,2.40
2023-03-27T20:07:10.052Z,1.73
2023-03-27T20:09:36.921Z,2.10
2023-03-27T20:12:05.003Z,2.10
2023-03-27T20:14:31.510Z,27.10
2023-03-27T20:16:57.968Z,7.90
2023-03-27T20:19:28.542Z,3.33
2023-03-27T20:21:57.647Z,4.50
2023-03-27T20:24:24.463Z,6.10
2023-03-27T20:26:56.955Z,4.90
2023-03-27T20:29:25.441Z,3.00
2023-03-27T20:31:52.118Z,3.47
2023-03-27T20:34:19.332Z,4.47
2023-03-27T20:36:46.318Z,1.17
2023-03-27T20:39:21.885Z,3.43
2023-03-27T20:41:49.036Z,5.13
2023-03-27T20:44:15.987Z,2.97
2023-03-27T20:46:47.404Z,2.93
2023-03-27T20:49:37.500Z,1.40
2023-03-27T20:52:08.123Z,1.33
2023-03-27T20:54:34.819Z,1.30
2023-03-27T20:57:02.515Z,4.17
2023-03-27T20:59:29.867Z,1.53
2023-03-27T21:01:57.261Z,1.33
2023-03-27T21:04:26.420Z,2.97
2023-03-27T21:06:54.855Z,3.63
2023-03-27T21:09:22.911Z,4.50
2023-03-27T21:11:53.309Z,5.13
2023-03-27T21:14:19.751Z,4.23
2023-03-27T21:16:46.352Z,5.03
2023-03-27T21:19:12.855Z,5.10
2023-03-27T21:21:40.434Z,4.07
2023-03-27T21:24:07.088Z,4.83
2023-03-27T21:26:34.106Z,6.40
2023-03-27T21:29:01.180Z,7.40
2023-03-27T21:31:27.767Z,8.20
2023-03-27T21:33:54.418Z,5.87
2023-03-27T21:36:21.074Z,5.83
2023-03-27T21:38:47.734Z,6.93
2023-03-27T21:41:15.683Z,3.53
2023-03-27T21:43:42.363Z,5.37
2023-03-27T21:46:09.026Z,3.57
2023-03-27T21:48:35.716Z,6.17
2023-03-27T21:51:05.257Z,4.67
2023-03-27T21:53:31.801Z,4.97
2023-03-27T21:55:58.635Z,3.97
2023-03-27T21:58:25.948Z,5.20
2023-03-27T22:00:54.970Z,3.40
2023-03-27T22:03:21.453Z,2.90
2023-03-27T22:05:54.531Z,5.07
2023-03-27T22:08:27.870Z,7.27
2023-03-27T22:10:58.301Z,8.63
2023-03-27T22:13:24.893Z,11.20
2023-03-27T22:15:51.496Z,7.40
2023-03-27T22:18:18.150Z,3.63
2023-03-27T22:20:44.636Z,4.20
2023-03-27T22:23:11.248Z,4.33
2023-03-27T22:25:37.684Z,3.90
2023-03-27T22:28:04.169Z,2.90
2023-03-27T22:30:30.782Z,2.50
2023-03-27T22:32:57.394Z,4.57
2023-03-27T22:35:23.987Z,4.27
2023-03-27T22:37:50.577Z,6.03
2023-03-27T22:40:17.118Z,3.83
2023-03-27T22:42:43.556Z,5.30
2023-03-27T22:45:10.507Z,3.87
2023-03-27T22:47:37.024Z,6.00
2023-03-27T22:50:04.861Z,3.73
2023-03-27T22:52:31.365Z,4.40
2023-03-27T22:54:57.859Z,6.03
2023-03-27T22:57:24.255Z,5.60
2023-03-27T22:59:51.020Z,3.67
2023-03-27T23:02:17.448Z,5.03
2023-03-27T23:04:43.873Z,4.27
2023-03-27T23:07:10.633Z,3.23
2023-03-27T23:09:37.132Z,3.17
2023-03-27T23:12:03.779Z,3.60
2023-03-27T23:14:30.883Z,3.00
2023-03-27T23:16:57.376Z,3.97
2023-03-27T23:19:23.774Z,2.47
2023-03-27T23:21:50.276Z,6.67
2023-03-27T23:24:16.673Z,3.27
2023-03-27T23:26:43.128Z,5.80
2023-03-27T23:29:09.560Z,5.43
2023-03-27T23:31:36.111Z,4.40
2023-03-27T23:34:02.581Z,3.37
2023-03-27T23:36:29.726Z,3.20
2023-03-27T23:38:56.572Z,5.10
2023-03-27T23:41:23.192Z,2.43
2023-03-27T23:43:49.761Z,2.07
2023-03-27T23:46:16.853Z,2.10
2023-03-27T23:48:44.423Z,2.53
2023-03-27T23:51:13.684Z,4.23
2023-03-27T23:53:41.127Z,4.23
2023-03-27T23:56:08.265Z,2.40
2023-03-27T23:58:37.009Z,2.20
